• Join FlightAware (Why Join?)
  • Login
  • US Flag 
04:40AM EDT


 

Airport Tracker/Info


-or-


 

Live Flight TrackerFlight Track Log ✈ SWA862 ✈ 12-Apr-2013 ✈ KBWI - KMHT

Flight Track Log - Related Links

Times and Time Zones

All times are in EDT time to prevent confusion due to time zone crossing. See the SWA862 flight status page for this flight to view local times or setup timezone preferences in your user account.

Time Position Orientation Groundspeed Altitude Reporting Facility
EDT Latitude Longitude Course Direction KTS MPH feet Rate Location/Type
10:37PM 39.1500 -76.6500 130° Southeast 174 200 1,700  Level Potomac TRACON
10:39PM 39.0619 -76.5167 130° Southeast 232 267 9,100 2,880 Climbing Washington Center
10:40PM 39.0858 -76.4044 75° East 240 276 11,300 2,160 Climbing Washington Center
10:41PM 39.1261 -76.2739 68° East 318 366 13,500 2,700 Climbing Washington Center
10:42PM 39.1789 -76.1111 67° East 385 443 16,700 1,740 Climbing Washington Center
10:43PM 39.2256 -75.9533 69° East 434 499 17,000 600 Climbing Washington Center
10:44PM 39.2800 -75.7953 66° East 462 532 17,900 2,040 Climbing Washington Center
10:45PM 39.3636 -75.6586 52° Northeast 478 550 21,100 3,300 Climbing Washington Center
10:46PM 39.4636 -75.5325 44° Northeast 483 556 24,500 3,000 Climbing Washington Center
10:47PM 39.5572 -75.4086 46° Northeast 488 562 27,100 2,280 Climbing Washington Center
10:48PM 39.6569 -75.2789 45° Northeast 488 562 29,100 1,740 Climbing Washington Center
10:49PM 39.7564 -75.1381 47° Northeast 500 575 30,600 1,320 Climbing Washington Center
10:49PM 39.7864 -75.0906 51° Northeast 530 610 31,100 1,500 Climbing New York Center
10:50PM 39.8897 -74.9428 48° Northeast 547 629 32,800 1,680 Climbing New York Center
10:51PM 39.9947 -74.7972 47° Northeast 548 631 34,500 1,080 Climbing New York Center
10:52PM 40.1086 -74.6328 48° Northeast 543 625 35,000 240 Climbing New York Center
10:53PM 40.2403 -74.5586 23° Northeast 515 593 35,000  Level New York Center
10:54PM 40.3772 -74.5144 14° North 500 575 35,000  Level New York Center
10:55PM 40.5181 -74.4756 12° North 505 581 35,000  Level New York Center
10:56PM 40.6547 -74.4339 13° North 500 575 35,000  Level New York Center
10:58PM 40.9231 -74.3603 12° North 511 588 35,000  Level Boston Center
10:59PM 41.0614 -74.3203 12° North 511 588 35,000  Level Boston Center
11:01PM 41.2267 -74.2700 13° North 511 588 35,000  Level Boston Center
11:01PM 41.3506 -74.2292 14° North 511 588 35,000 -120 Level Boston Center
11:02PM 41.4886 -74.1831 14° North 511 588 34,800 -1,920 Descending Boston Center
11:03PM 41.6342 -74.0761 29° Northeast 523 602 31,200 -3,660 Descending Boston Center
11:04PM 41.7628 -73.9597 34° Northeast 530 610 27,600 -2,100 Descending Boston Center
11:06PM 41.8850 -73.8539 33° Northeast 530 610 27,000 -300 Descending Boston Center
11:06PM 42.0114 -73.7422 33° Northeast 535 616 27,000  Level Boston Center
11:07PM 42.1422 -73.6161 36° Northeast 553 636 27,000  Level Boston Center
11:08PM 42.2375 -73.4553 51° Northeast 547 629 27,000  Level Boston Center
11:09PM 42.3200 -73.2908 56° Northeast 540 621 27,000  Level Boston Center
11:10PM 42.3964 -73.1261 58° Northeast 546 628 27,000  Level Boston Center
11:12PM 42.4783 -72.9525 57° Northeast 552 635 27,000 -900 Level Boston Center
11:13PM 42.5625 -72.7783 57° Northeast 547 629 25,200 -2,100 Descending Boston Center
11:14PM 42.6544 -72.6319 49° Northeast 536 617 22,800 -2,520 Descending Boston Center
11:15PM 42.7756 -72.5333 31° Northeast 507 583 20,200 -2,460 Descending Boston Center
11:16PM 42.7942 -72.3664 81° East 430 495 17,900 -2,520 Descending Boston Center
11:16PM 42.8044 -72.1825 86° East 425 489 15,300 -1,980 Descending Boston Center
11:17PM 42.8144 -72.0439 84° East 425 489 14,100 -1,680 Descending Boston Center
11:18PM 42.8056 -71.8911 94° East 378 435 12,000 -1,560 Descending Boston Center
11:20PM 42.7922 -71.7725 99° East 354 407 11,000 -1,200 Descending Boston Center
11:20PM 42.7769 -71.6453 99° East 321 369 9,700 -1,620 Descending Boston Center
11:21PM 42.7636 -71.5464 100° East 299 344 7,800 -2,160 Descending Boston Center
11:22PM 42.7211 -71.4453 120° Southeast 271 312 5,400 -2,040 Descending Boston Center
11:24PM 42.7122 -71.3692 99° East 246 283 3,700 -1,680 Descending Boston Center
11:24PM 42.7661 -71.3428 20° North 140 161 2,100 -900 Descending Boston Center
11:25PM 42.8039 -71.3592 342° North 134 154 2,000 -60 Descending Boston Center
11:26PM 42.8456 -71.3839 336° Northwest 141 162 2,000 -360 Level Boston Center
11:27PM 42.8750 -71.4003 338° Northwest 141 162 1,300 -780 Descending Boston Center
11:28PM 42.9128 -71.4194 340° North 130 150 500 -480 Descending Boston Center
11:29PM 42.9400 -71.4417 329° Northwest 130 150 400 13,140 Descending Boston Center
11:31PM 42.9714 -71.4611 336° Northwest 130 150 27,000 26,160 Climbing Boston Center